WetterOnline ( https://www.wetteronline.at )

Wetter aktuell Siegen

Aktuelles Wetter: Bad Marienberg (555m)

6-stündlich | Neueste Meldungen
Ortszeit Temperatur Wetter
Do, 06.08. 2:00 17.4° C wolkenlos
Mi, 05.08. 20:00 23.0° C wolkenlos
Mi, 05.08. 14:00 23.9° C wolkenlos
Mi, 05.08. 8:00 15.3° C fast wolkenlos
Mi, 05.08. 2:00 15.4° C wolkenlos
Di, 04.08. 20:00 18.8° C wolkenlos
Di, 04.08. 14:00 19.2° C leicht bewölkt
Di, 04.08. 8:00 12.2° C wolkenlos
Ortszeit Temperatur Wetter
Do, 06.08. 3:00 15.9° C wolkenlos
Do, 06.08. 2:30 16.7° C wolkenlos
Do, 06.08. 2:20 16.7° C wolkenlos
Do, 06.08. 2:10 16.3° C wolkenlos
Do, 06.08. 2:00 17.4° C wolkenlos
Do, 06.08. 1:50 17.4° C wolkenlos
Do, 06.08. 1:30 17.4° C leicht bewölkt
Do, 06.08. 1:00 18.3° C leicht bewölkt
Do, 06.08. 0:30 17.9° C fast wolkenlos
Do, 06.08. 0:00 18.4° C wolkenlos
Mi, 05.08. 23:30 18.6° C wolkenlos
Ortszeit Relative Feuchte Sichtweite
Do, 06.08. 2:00 49% 55 km
Mi, 05.08. 20:00 32% 55 km
Mi, 05.08. 14:00 33% 35 km
Mi, 05.08. 8:00 52% 50 km
Mi, 05.08. 2:00 50% >70 km
Di, 04.08. 20:00 38% >70 km
Di, 04.08. 14:00 41% 50 km
Di, 04.08. 8:00 80% 30 km
Ortszeit Relative Feuchte Sichtweite
Do, 06.08. 3:00 55% 65 km
Do, 06.08. 2:30 53% >70 km
Do, 06.08. 2:20 53% -
Do, 06.08. 2:10 53% -
Do, 06.08. 2:00 49% 55 km
Do, 06.08. 1:50 49% -
Do, 06.08. 1:30 48% 60 km
Do, 06.08. 1:00 45% >70 km
Do, 06.08. 0:30 47% 65 km
Do, 06.08. 0:00 43% 65 km
Mi, 05.08. 23:30 41% 65 km
Ortszeit Niederschlagsmenge Niederschlagsart
Do, 06.08. 2:00 0.0 l/m2 in 6 Std. -
Mi, 05.08. 20:00 0.0 l/m2 in 12 Std. -
Mi, 05.08. 14:00 0.0 l/m2 in 6 Std. -
Mi, 05.08. 8:00 0.0 l/m2 in 12 Std. -
Mi, 05.08. 2:00 0.0 l/m2 in 6 Std. -
Di, 04.08. 20:00 0.0 l/m2 in 12 Std. -
Di, 04.08. 14:00 0.0 l/m2 in 6 Std. -
Di, 04.08. 8:00 0.1 l/m2 in 12 Std. -
Ortszeit Niederschlagsmenge Niederschlagsart
Do, 06.08. 3:00 0.0 l/m2 in 1 Std. -
Do, 06.08. 2:30 0.0 l/m2 in 1 Std. -
Do, 06.08. 2:20 keine Meldung -
Do, 06.08. 2:10 keine Meldung -
Do, 06.08. 2:00 0.0 l/m2 in 1 Std. -
Do, 06.08. 1:50 keine Meldung -
Do, 06.08. 1:30 0.0 l/m2 in 1 Std. -
Do, 06.08. 1:00 0.0 l/m2 in 1 Std. -
Do, 06.08. 0:30 0.0 l/m2 in 1 Std. -
Do, 06.08. 0:00 0.0 l/m2 in 1 Std. -
Mi, 05.08. 23:30 0.0 l/m2 in 1 Std. -
Ortszeit Stärke Spitze Richtung
km/h Bft. km/h Grad Sektor
Do, 06.08. 2:00 11 2 22 170° S
Mi, 05.08. 20:00 17 3 31 170° S
Mi, 05.08. 14:00 15 3 33 200° S
Mi, 05.08. 8:00 7 2 11 170° S
Mi, 05.08. 2:00 6 1 19 50° NO
Di, 04.08. 20:00 7 2 36 320° NW
Di, 04.08. 14:00 11 2 28 320° NW
Di, 04.08. 8:00 13 3 22 360° N
Ortszeit Stärke Spitze Richtung
km/h Bft. km/h Grad Sektor
Do, 06.08. 3:00 13 3 19 170° S
Do, 06.08. 2:30 14 3 18 160° S
Do, 06.08. 2:20 14 3 - 160° S
Do, 06.08. 2:10 13 3 - 160° S
Do, 06.08. 2:00 11 2 14 170° S
Do, 06.08. 1:50 11 2 - 170° S
Do, 06.08. 1:30 11 2 14 160° S
Do, 06.08. 1:00 7 2 18 170° S
Do, 06.08. 0:30 13 3 19 140° SO
Do, 06.08. 0:00 11 2 17 130° SO
Mi, 05.08. 23:30 11 2 14 130° SO
Ortszeit Untergrenze Bedeckung Gattung
total tief tief mittel hoch
Do, 06.08. 2:00 - 0/8 0/8 - - -
Mi, 05.08. 20:00 - 0/8 0/8 - - -
Mi, 05.08. 14:00 - 0/8 0/8 - - -
Mi, 05.08. 8:00 10500 m 2/8 0/8 - - -
Mi, 05.08. 2:00 8100 m 0/8 0/8 - - -
Di, 04.08. 20:00 - 0/8 0/8 - - -
Di, 04.08. 14:00 1500 m 3/8 2/8 - - -
Di, 04.08. 8:00 1140 m 0/8 0/8 - - -
Ortszeit Bedeckungsgrad in Achtel und Wolkenuntergrenze
Do, 06.08. 3:00 keine Wolken
Do, 06.08. 2:30 keine Wolken
Do, 06.08. 2:20 keine Wolken
Do, 06.08. 2:10 keine Wolken
Do, 06.08. 2:00 keine Wolken
Do, 06.08. 1:50 keine Wolken
Do, 06.08. 1:30 5(8400m)
Do, 06.08. 1:00 3(8400m)
Do, 06.08. 0:30 2(8700m)
Do, 06.08. 0:00 keine Wolken
Mi, 05.08. 23:30 keine Wolken
Ortszeit Luftdruck NN (hPa) Tendenz (hPa in 3 Std.)
Do, 06.08. 2:00 1019 + 0,6
Mi, 05.08. 20:00 1016 + 0,4
Mi, 05.08. 14:00 1016 - 0,8
Mi, 05.08. 8:00 1018 + 0,5
Mi, 05.08. 2:00 1018 - 0,2
Di, 04.08. 20:00 1016 + 0,2
Di, 04.08. 14:00 1016 + 0,2
Di, 04.08. 8:00 1016 + 1,3
Ortszeit Luftdruck NN (hPa) Tendenz (hPa in 3 Std.)
Do, 06.08. 3:00 1019 + 0,4
Do, 06.08. 2:30 1019 + 0,5
Do, 06.08. 2:20 1019 keine Meldung
Do, 06.08. 2:10 1019 keine Meldung
Do, 06.08. 2:00 1019 + 0,6
Do, 06.08. 1:50 1019 keine Meldung
Do, 06.08. 1:30 1019 + 0,5
Do, 06.08. 1:00 1019 + 0,9
Do, 06.08. 0:30 1019 + 0,9
Do, 06.08. 0:00 1018 + 1,0
Mi, 05.08. 23:30 1018 + 1,0
Ortszeit Schneehöhe (cm)
Do, 06.08. 2:00 -
Mi, 05.08. 20:00 -
Mi, 05.08. 14:00 -
Mi, 05.08. 8:00 -
Mi, 05.08. 2:00 -
Di, 04.08. 20:00 -
Di, 04.08. 14:00 -
Di, 04.08. 8:00 -
Ortszeit Schneehöhe (cm)
Do, 06.08. 3:00 -
Do, 06.08. 2:30 -
Do, 06.08. 2:20 -
Do, 06.08. 2:10 -
Do, 06.08. 2:00 -
Do, 06.08. 1:50 -
Do, 06.08. 1:30 -
Do, 06.08. 1:00 -
Do, 06.08. 0:30 -
Do, 06.08. 0:00 -
Mi, 05.08. 23:30 -
Link zu dieser Seite / Seite empfehlen

Das Wetter in ...